Geervliet — PCLI — position and weather

sailwx.info

Track history (hours):
 
Tides and Currents Weather Stations Pressure Air Temp Water Temp Dewpoint Dewpoint Depression Visibility Wind Speed Wind Dir Waves Ship Positions

Geervliet

Last reported at 2015-Mar-27 07:33 UTC. Time now 2015-Mar-30 14:14 UTC.
Position N 41°20' E 029°38'.

Length 86 m; draft 3.5 m.

Type: Cargo ship. MMSI: 246803000.

Date/timePositionNaut miles runAvg speedWind from/ knotsBaromVisibWave heightAir tempDewpointWater temp
2015-Mar-27 07:33N 41°20' E 029°38'50 3.4
2015-Mar-26 17:03N 40°46' E 028°50'1 1.1
2015-Mar-26 16:32N 40°46' E 028°50'1 1.1
2015-Mar-26 15:17N 40°44' E 028°50'1 1.0
2015-Mar-26 14:33N 40°44' E 028°50'1 1.0
2015-Mar-26 13:27N 40°44' E 028°52'1 0.8
2015-Mar-26 12:33N 40°45' E 028°52'1 0.9
2015-Mar-26 11:33N 40°45' E 028°53'2 2.5
2015-Mar-26 10:33N 40°46' E 028°50'2 1.8
2015-Mar-26 09:31N 40°47' E 028°48'0 0.5
2015-Mar-26 08:33N 40°48' E 028°48'0 0.4
2015-Mar-26 07:33N 40°48' E 028°48'1 0.6
2015-Mar-26 06:33N 40°48' E 028°48'1 0.6
2015-Mar-26 05:31N 40°47' E 028°48'1 0.9
2015-Mar-26 04:33N 40°46' E 028°49'1 1.0
2015-Mar-26 03:32N 40°45' E 028°50'1 0.5
2015-Mar-26 02:33N 40°46' E 028°50'3 2.6
2015-Mar-26 01:33N 40°48' E 028°49'3 2.9
2015-Mar-26 00:33N 40°50' E 028°46'  
2015-Mar-22 16:33N 36°37' E 014°35'9 9.1
2015-Mar-22 15:34N 36°39' E 014°24'9 9.2
2015-Mar-22 14:33N 36°41' E 014°12'9 8.8
2015-Mar-22 13:33N 36°44' E 014°02'9 8.7
2015-Mar-22 12:33N 36°46' E 013°51'8 8.5
2015-Mar-22 11:34N 36°48' E 013°41'9 8.5
2015-Mar-22 10:29N 36°50' E 013°30'342 6.9
2015-Mar-20 08:33N 37°13' E 006°22'10 6.7
2015-Mar-20 07:05N 37°12' E 006°10'7 7.1
2015-Mar-20 06:06N 37°11' E 006°01'4 7.2
2015-Mar-20 05:32N 37°12' E 005°56'7 7.2
2015-Mar-20 04:34N 37°11' E 005°47'7 6.9
2015-Mar-20 03:33N 37°11' E 005°39'13 6.6
2015-Mar-20 01:33N 37°10' E 005°22'7 6.7
2015-Mar-20 00:33N 37°09' E 005°14'10 7.1
2015-Mar-19 23:11N 37°08' E 005°02'7 7.8
2015-Mar-19 22:19N 37°07' E 004°54'7 7.5
2015-Mar-19 21:21N 37°07' E 004°44'28 7.3
2015-Mar-19 17:32N 37°04' E 004°10'7 6.8
2015-Mar-19 16:33N 37°03' E 004°01'18 7.7
2015-Mar-19 14:16N 37°02' E 003°39'9 8.4
2015-Mar-19 13:12N 37°01' E 003°28'21 8.1
2015-Mar-19 10:33N 36°58' E 003°02'8 8.0
2015-Mar-19 09:33N 36°57' E 002°52'48 9.2
2015-Mar-19 04:20N 36°49' E 001°53'  
Track history (hours):
 
Tides and Currents Weather Stations Pressure Air Temp Water Temp Dewpoint Dewpoint Depression Visibility Wind Speed Wind Dir Waves Ship Positions

Geervliet

Last reported at 2015-Mar-27 07:33 UTC. Time now 2015-Mar-30 14:14 UTC.
Position N 41°20' E 029°38'.

Length 86 m; draft 3.5 m.

Type: Cargo ship. MMSI: 246803000.

Date/timePositionNaut miles runAvg speedWind from/ knotsBaromVisibWave heightAir tempDewpointWater temp
2015-Mar-27 07:33N 41°20' E 029°38'50 3.4
2015-Mar-26 17:03N 40°46' E 028°50'1 1.1
2015-Mar-26 16:32N 40°46' E 028°50'1 1.1
2015-Mar-26 15:17N 40°44' E 028°50'1 1.0
2015-Mar-26 14:33N 40°44' E 028°50'1 1.0
2015-Mar-26 13:27N 40°44' E 028°52'1 0.8
2015-Mar-26 12:33N 40°45' E 028°52'1 0.9
2015-Mar-26 11:33N 40°45' E 028°53'2 2.5
2015-Mar-26 10:33N 40°46' E 028°50'2 1.8
2015-Mar-26 09:31N 40°47' E 028°48'0 0.5
2015-Mar-26 08:33N 40°48' E 028°48'0 0.4
2015-Mar-26 07:33N 40°48' E 028°48'1 0.6
2015-Mar-26 06:33N 40°48' E 028°48'1 0.6
2015-Mar-26 05:31N 40°47' E 028°48'1 0.9
2015-Mar-26 04:33N 40°46' E 028°49'1 1.0
2015-Mar-26 03:32N 40°45' E 028°50'1 0.5
2015-Mar-26 02:33N 40°46' E 028°50'3 2.6
2015-Mar-26 01:33N 40°48' E 028°49'3 2.9
2015-Mar-26 00:33N 40°50' E 028°46'  
2015-Mar-22 16:33N 36°37' E 014°35'9 9.1
2015-Mar-22 15:34N 36°39' E 014°24'9 9.2
2015-Mar-22 14:33N 36°41' E 014°12'9 8.8
2015-Mar-22 13:33N 36°44' E 014°02'9 8.7
2015-Mar-22 12:33N 36°46' E 013°51'8 8.5
2015-Mar-22 11:34N 36°48' E 013°41'9 8.5
2015-Mar-22 10:29N 36°50' E 013°30'342 6.9
2015-Mar-20 08:33N 37°13' E 006°22'10 6.7
2015-Mar-20 07:05N 37°12' E 006°10'7 7.1
2015-Mar-20 06:06N 37°11' E 006°01'4 7.2
2015-Mar-20 05:32N 37°12' E 005°56'7 7.2
2015-Mar-20 04:34N 37°11' E 005°47'7 6.9
2015-Mar-20 03:33N 37°11' E 005°39'13 6.6
2015-Mar-20 01:33N 37°10' E 005°22'7 6.7
2015-Mar-20 00:33N 37°09' E 005°14'10 7.1
2015-Mar-19 23:11N 37°08' E 005°02'7 7.8
2015-Mar-19 22:19N 37°07' E 004°54'7 7.5
2015-Mar-19 21:21N 37°07' E 004°44'28 7.3
2015-Mar-19 17:32N 37°04' E 004°10'7 6.8
2015-Mar-19 16:33N 37°03' E 004°01'18 7.7
2015-Mar-19 14:16N 37°02' E 003°39'9 8.4
2015-Mar-19 13:12N 37°01' E 003°28'21 8.1
2015-Mar-19 10:33N 36°58' E 003°02'8 8.0
2015-Mar-19 09:33N 36°57' E 002°52'48 9.2
2015-Mar-19 04:20N 36°49' E 001°53'  

Dump ship's entire track history